Chievres, Belgium
Current Conditions -  °F | °C
As of 1:25 PM on Sunday 25 Jan 2015 (Local Time) from EBCV Reporting Station
Broken Clouds Broken Clouds  
Wind Chill: 34°   Ceiling: 7500
Heat Index: 39°   Visibility: 6mi
Dew Point: 36°   Wind: 7mph
Humidity: 87%   Direction: 240°WSW
Pressure: 30.48"   Gusts: NA
Location:  50.58°N, 3.8°E
Report Text: EBCV 251225Z AUTO 24006KT 9999 BKN075/// 04/02 Q1032 BLU
Loading
Personal Weather Stations






























Interactive Weather Map New forecast layout! Learn more

10-Day Weather Forecast

Advertisements
Track Severe Weather on mobile